createdAt,value
2022-11-09T00:00:47.978Z,13.06
2022-11-09T00:05:57.747Z,13.08
2022-11-09T00:11:06.607Z,13.06
2022-11-09T00:16:11.522Z,13.03
2022-11-09T00:21:16.474Z,13.05
2022-11-09T00:26:22.083Z,13.01
2022-11-09T00:31:26.245Z,13.01
2022-11-09T00:36:30.888Z,12.98
2022-11-09T00:41:35.297Z,12.97
2022-11-09T00:46:38.335Z,12.88
2022-11-09T00:51:41.546Z,12.89
2022-11-09T00:56:46.343Z,12.82
2022-11-09T01:01:49.891Z,12.80
2022-11-09T01:06:54.669Z,12.74
2022-11-09T01:12:00.290Z,12.66
2022-11-09T01:17:03.498Z,12.60
2022-11-09T01:22:06.893Z,12.57
2022-11-09T01:27:11.497Z,12.50
2022-11-09T01:32:14.575Z,12.46
2022-11-09T01:37:17.524Z,12.41
2022-11-09T01:42:25.824Z,12.37
2022-11-09T01:47:28.939Z,12.34
2022-11-09T01:52:37.475Z,12.29
2022-11-09T01:57:51.359Z,12.29
2022-11-09T02:02:58.328Z,12.33
2022-11-09T02:08:03.981Z,12.41
2022-11-09T02:13:09.620Z,12.44
2022-11-09T02:18:14.260Z,12.44
2022-11-09T02:23:20.007Z,12.43
2022-11-09T02:28:24.101Z,12.46
2022-11-09T02:33:27.442Z,12.52
2022-11-09T02:38:33.208Z,12.57
2022-11-09T02:43:37.934Z,12.60
2022-11-09T02:48:41.360Z,12.65
2022-11-09T02:53:45.791Z,12.65
2022-11-09T02:58:48.923Z,12.62
2022-11-09T03:03:53.274Z,12.52
2022-11-09T03:08:57.802Z,12.47
2022-11-09T03:14:01.173Z,12.38
2022-11-09T03:19:04.852Z,12.29
2022-11-09T03:24:10.612Z,12.25
2022-11-09T03:29:15.766Z,12.15
2022-11-09T03:34:19.130Z,12.11
2022-11-09T03:39:23.877Z,12.07
2022-11-09T03:44:27.037Z,12.05
2022-11-09T03:49:30.499Z,12.00
2022-11-09T03:54:35.100Z,11.93
2022-11-09T03:59:38.992Z,11.92
2022-11-09T04:04:42.052Z,11.91
2022-11-09T04:09:46.422Z,11.91
2022-11-09T04:14:49.535Z,11.84
2022-11-09T04:19:52.664Z,11.82
2022-11-09T04:24:57.400Z,11.79
2022-11-09T04:30:00.479Z,11.78
2022-11-09T04:35:04.255Z,11.81
2022-11-09T04:40:10.313Z,11.77
2022-11-09T04:45:13.330Z,11.77
2022-11-09T04:50:16.913Z,11.68
2022-11-09T04:55:21.547Z,11.64
2022-11-09T05:00:24.579Z,11.60
2022-11-09T05:05:27.872Z,11.55
2022-11-09T05:10:33.304Z,11.54
2022-11-09T05:15:37.794Z,11.52
2022-11-09T05:20:41.087Z,11.56
2022-11-09T05:25:46.179Z,11.68
2022-11-09T05:30:49.263Z,11.60
2022-11-09T05:35:52.329Z,11.53
2022-11-09T05:40:56.662Z,11.45
2022-11-09T05:46:03.880Z,11.43
2022-11-09T05:51:12.668Z,11.42
2022-11-09T05:56:17.133Z,11.38
2022-11-09T06:01:20.337Z,11.34
2022-11-09T06:06:23.373Z,11.31
2022-11-09T06:11:29.905Z,11.28
2022-11-09T06:16:33.034Z,11.30
2022-11-09T06:21:36.159Z,11.37
2022-11-09T06:26:40.900Z,11.42
2022-11-09T06:31:44.007Z,11.43
2022-11-09T06:36:47.512Z,11.41
2022-11-09T06:41:51.940Z,11.35
2022-11-09T06:46:55.390Z,11.32
2022-11-09T06:51:58.448Z,11.29
2022-11-09T06:57:03.049Z,11.31
2022-11-09T07:02:06.502Z,11.37
2022-11-09T07:07:09.653Z,11.43
2022-11-09T07:12:14.242Z,11.41
2022-11-09T07:17:17.551Z,11.37
2022-11-09T07:22:21.002Z,11.38
2022-11-09T07:27:28.116Z,11.38
2022-11-09T07:33:07.000Z,11.38
2022-11-09T07:38:01.402Z,11.41
2022-11-09T07:43:07.809Z,11.48
2022-11-09T07:48:14.514Z,11.65
2022-11-09T07:53:18.200Z,11.63
2022-11-09T07:58:22.795Z,11.65
2022-11-09T08:03:26.193Z,11.71
2022-11-09T08:08:29.281Z,11.79
2022-11-09T08:13:34.205Z,11.88
2022-11-09T08:18:37.206Z,12.00
2022-11-09T08:23:40.585Z,12.21
2022-11-09T08:28:45.437Z,12.40
2022-11-09T08:33:48.654Z,12.51
2022-11-09T08:38:52.256Z,12.59
2022-11-09T08:43:56.687Z,12.71
2022-11-09T08:48:59.779Z,12.82
2022-11-09T08:54:02.946Z,12.94
2022-11-09T08:59:07.504Z,13.09
2022-11-09T09:04:10.813Z,13.23
2022-11-09T09:09:13.774Z,13.38
2022-11-09T09:14:18.488Z,13.60
2022-11-09T09:19:21.437Z,13.83
2022-11-09T09:24:24.792Z,13.85
2022-11-09T09:29:29.254Z,13.88
2022-11-09T09:34:32.522Z,13.88
2022-11-09T09:39:35.780Z,14.15
2022-11-09T09:44:44.575Z,14.35
2022-11-09T09:49:53.557Z,14.31
2022-11-09T09:55:02.341Z,14.40
2022-11-09T10:00:10.585Z,14.49
2022-11-09T10:05:18.175Z,14.52
2022-11-09T10:10:44.445Z,14.40
2022-11-09T10:15:54.386Z,14.34
2022-11-09T10:21:10.265Z,14.26
2022-11-09T10:26:19.984Z,14.23
2022-11-09T10:31:25.254Z,14.54
2022-11-09T10:36:33.114Z,14.65
2022-11-09T10:41:40.767Z,14.45
2022-11-09T10:47:09.270Z,14.46
2022-11-09T10:52:43.038Z,14.43
2022-11-09T10:58:22.759Z,14.39
2022-11-09T11:03:46.861Z,14.46
2022-11-09T11:09:17.708Z,14.48
2022-11-09T11:14:45.009Z,14.56
2022-11-09T11:20:30.083Z,14.52
2022-11-09T11:26:08.216Z,14.42
2022-11-09T11:31:30.177Z,14.32
2022-11-09T11:37:07.475Z,14.27
2022-11-09T11:43:03.076Z,14.23
2022-11-09T11:48:59.005Z,14.41
2022-11-09T11:54:32.656Z,14.37
2022-11-09T12:00:05.586Z,14.36
2022-11-09T12:05:55.190Z,14.22
2022-11-09T12:11:27.009Z,14.31
2022-11-09T12:16:54.450Z,14.61
2022-11-09T12:22:22.692Z,14.97
2022-11-09T12:28:06.216Z,14.94
2022-11-09T12:33:39.446Z,15.02
2022-11-09T12:39:11.665Z,15.19
2022-11-09T12:44:41.669Z,15.12
2022-11-09T12:50:03.684Z,15.18
2022-11-09T12:55:32.198Z,15.29
2022-11-09T13:00:57.996Z,15.32
2022-11-09T13:06:22.810Z,15.31
2022-11-09T13:11:47.452Z,15.36
2022-11-09T13:17:42.741Z,15.47
2022-11-09T13:23:47.700Z,15.59
2022-11-09T13:29:11.008Z,15.45
2022-11-09T13:34:43.838Z,15.36
2022-11-09T13:40:39.980Z,15.14
2022-11-09T13:46:05.641Z,15.32
2022-11-09T13:51:43.583Z,15.30
2022-11-09T13:57:08.128Z,15.19
2022-11-09T14:02:31.298Z,15.10
2022-11-09T14:07:55.553Z,14.99
2022-11-09T14:13:44.137Z,14.84
2022-11-09T14:19:28.015Z,14.78
2022-11-09T14:24:50.318Z,14.82
2022-11-09T14:30:20.077Z,14.66
2022-11-09T14:35:43.190Z,14.65
2022-11-09T14:41:05.265Z,14.51
2022-11-09T14:46:29.738Z,14.46
2022-11-09T14:51:53.069Z,14.35
2022-11-09T14:57:16.743Z,14.21
2022-11-09T15:02:39.414Z,14.14
2022-11-09T15:08:03.209Z,14.03
2022-11-09T15:13:32.665Z,13.97
2022-11-09T15:18:54.582Z,13.97
2022-11-09T15:24:19.231Z,13.94
2022-11-09T15:29:43.086Z,13.82
2022-11-09T15:35:16.990Z,13.75
2022-11-09T15:40:40.459Z,13.68
2022-11-09T15:46:02.486Z,13.48
2022-11-09T15:51:24.682Z,13.66
2022-11-09T15:56:48.354Z,13.62
2022-11-09T16:02:11.967Z,13.58
2022-11-09T16:07:33.751Z,13.54
2022-11-09T16:12:57.026Z,13.47
2022-11-09T16:18:25.482Z,13.38
2022-11-09T16:23:48.124Z,13.37
2022-11-09T16:29:11.384Z,13.28
2022-11-09T16:34:33.170Z,13.19
2022-11-09T16:39:55.321Z,13.23
2022-11-09T16:45:19.514Z,13.24
2022-11-09T16:50:41.553Z,13.17
2022-11-09T16:56:03.232Z,13.13
2022-11-09T17:01:26.668Z,13.16
2022-11-09T17:06:48.286Z,13.10
2022-11-09T17:12:09.781Z,12.96
2022-11-09T17:17:33.232Z,12.81
2022-11-09T17:22:55.398Z,12.74
2022-11-09T17:28:17.489Z,12.70
2022-11-09T17:33:40.966Z,12.55
2022-11-09T17:39:02.644Z,12.54
2022-11-09T17:44:24.230Z,12.62
2022-11-09T17:49:47.685Z,12.51
2022-11-09T17:55:09.889Z,12.61
2022-11-09T18:00:31.732Z,12.55
2022-11-09T18:05:55.074Z,12.51
2022-11-09T18:11:18.781Z,12.42
2022-11-09T18:16:40.521Z,12.32
2022-11-09T18:22:04.922Z,12.22
2022-11-09T18:27:30.546Z,12.15
2022-11-09T18:32:52.915Z,12.07
2022-11-09T18:38:20.017Z,11.99
2022-11-09T18:43:42.762Z,11.90
2022-11-09T18:49:08.929Z,11.83
2022-11-09T18:54:36.160Z,11.75
2022-11-09T18:59:57.968Z,11.70
2022-11-09T19:05:19.778Z,11.67
2022-11-09T19:10:42.826Z,11.61
2022-11-09T19:16:04.713Z,11.59
2022-11-09T19:21:37.885Z,11.55
2022-11-09T19:27:01.659Z,11.56
2022-11-09T19:32:23.661Z,11.53
2022-11-09T19:37:45.720Z,11.42
2022-11-09T19:43:08.413Z,11.34
2022-11-09T19:48:29.892Z,11.28
2022-11-09T19:53:52.915Z,11.28
2022-11-09T19:59:17.840Z,11.37
2022-11-09T20:04:40.131Z,11.45
2022-11-09T20:10:03.537Z,11.39
2022-11-09T20:15:26.713Z,11.32
2022-11-09T20:20:48.808Z,11.26
2022-11-09T20:26:12.079Z,11.32
2022-11-09T20:31:36.782Z,11.32
2022-11-09T20:36:58.255Z,11.25
2022-11-09T20:42:19.752Z,11.16
2022-11-09T20:48:05.037Z,11.10
2022-11-09T20:53:24.511Z,11.02
2022-11-09T20:58:47.389Z,10.98
2022-11-09T21:04:11.203Z,10.90
2022-11-09T21:09:33.182Z,10.86
2022-11-09T21:14:54.930Z,10.80
2022-11-09T21:20:19.112Z,10.76
2022-11-09T21:25:59.555Z,10.72
2022-11-09T21:31:21.845Z,10.69
2022-11-09T21:36:46.180Z,10.62
2022-11-09T21:42:08.256Z,10.63
2022-11-09T21:47:30.324Z,10.58
2022-11-09T21:52:53.103Z,10.54
2022-11-09T21:58:15.040Z,10.51
2022-11-09T22:03:36.966Z,10.48
2022-11-09T22:09:00.637Z,10.46
2022-11-09T22:14:40.026Z,10.43
2022-11-09T22:20:19.321Z,10.39
2022-11-09T22:25:47.805Z,10.37
2022-11-09T22:31:10.673Z,10.34
2022-11-09T22:36:32.384Z,10.30
2022-11-09T22:41:55.480Z,10.26
2022-11-09T22:47:17.075Z,10.22
2022-11-09T22:52:38.617Z,10.19
2022-11-09T22:58:02.167Z,10.19
2022-11-09T23:03:24.784Z,10.15
2022-11-09T23:08:46.999Z,10.13
2022-11-09T23:14:10.053Z,10.09
2022-11-09T23:19:32.101Z,10.06
2022-11-09T23:25:26.155Z,10.08
2022-11-09T23:30:49.566Z,10.03
2022-11-09T23:36:11.665Z,10.01
2022-11-09T23:41:33.953Z,9.96
2022-11-09T23:46:56.952Z,9.98
2022-11-09T23:52:18.809Z,9.97
2022-11-09T23:57:41.116Z,9.93
